sensor_id;sensor_type;location;lat;lon;timestamp;P1;durP1;ratioP1;P2;durP2;ratioP2
69573;SDS011;62840;52.366;5.980;2024-03-06T00:01:31;19.63;;;9.38;;
69573;SDS011;62840;52.366;5.980;2024-03-06T00:03:57;18.10;;;8.88;;
69573;SDS011;62840;52.366;5.980;2024-03-06T00:06:25;17.60;;;9.30;;
69573;SDS011;62840;52.366;5.980;2024-03-06T00:08:51;16.52;;;8.63;;
69573;SDS011;62840;52.366;5.980;2024-03-06T00:11:17;17.98;;;9.20;;
69573;SDS011;62840;52.366;5.980;2024-03-06T00:13:42;17.60;;;8.63;;
69573;SDS011;62840;52.366;5.980;2024-03-06T00:16:11;16.88;;;8.15;;
69573;SDS011;62840;52.366;5.980;2024-03-06T00:18:37;16.50;;;8.65;;
69573;SDS011;62840;52.366;5.980;2024-03-06T00:21:03;18.75;;;9.15;;
69573;SDS011;62840;52.366;5.980;2024-03-06T00:23:29;16.45;;;7.93;;
69573;SDS011;62840;52.366;5.980;2024-03-06T00:25:55;17.02;;;9.02;;
69573;SDS011;62840;52.366;5.980;2024-03-06T00:28:21;17.85;;;9.15;;
69573;SDS011;62840;52.366;5.980;2024-03-06T00:30:47;17.23;;;9.20;;
69573;SDS011;62840;52.366;5.980;2024-03-06T00:33:16;16.13;;;8.35;;
69573;SDS011;62840;52.366;5.980;2024-03-06T00:35:41;15.52;;;8.35;;
69573;SDS011;62840;52.366;5.980;2024-03-06T00:38:07;16.73;;;8.57;;
69573;SDS011;62840;52.366;5.980;2024-03-06T00:40:33;17.77;;;8.50;;
69573;SDS011;62840;52.366;5.980;2024-03-06T00:42:59;15.98;;;8.27;;
69573;SDS011;62840;52.366;5.980;2024-03-06T00:45:25;16.93;;;8.17;;
69573;SDS011;62840;52.366;5.980;2024-03-06T00:47:51;18.85;;;9.48;;
69573;SDS011;62840;52.366;5.980;2024-03-06T00:50:19;19.47;;;9.33;;
69573;SDS011;62840;52.366;5.980;2024-03-06T00:52:45;18.45;;;9.15;;
69573;SDS011;62840;52.366;5.980;2024-03-06T00:55:11;18.50;;;9.13;;
69573;SDS011;62840;52.366;5.980;2024-03-06T00:57:37;16.07;;;9.07;;
69573;SDS011;62840;52.366;5.980;2024-03-06T01:00:03;16.65;;;9.05;;
69573;SDS011;62840;52.366;5.980;2024-03-06T01:02:30;16.60;;;8.73;;
69573;SDS011;62840;52.366;5.980;2024-03-06T01:04:56;16.88;;;8.82;;
69573;SDS011;62840;52.366;5.980;2024-03-06T01:07:24;17.65;;;9.10;;
69573;SDS011;62840;52.366;5.980;2024-03-06T01:09:50;17.70;;;9.18;;
69573;SDS011;62840;52.366;5.980;2024-03-06T01:12:16;19.23;;;8.63;;
69573;SDS011;62840;52.366;5.980;2024-03-06T01:14:42;18.27;;;9.97;;
69573;SDS011;62840;52.366;5.980;2024-03-06T01:17:08;17.02;;;9.00;;
69573;SDS011;62840;52.366;5.980;2024-03-06T01:19:34;20.20;;;9.50;;
69573;SDS011;62840;52.366;5.980;2024-03-06T01:21:59;18.05;;;9.35;;
69573;SDS011;62840;52.366;5.980;2024-03-06T01:24:28;19.00;;;9.38;;
69573;SDS011;62840;52.366;5.980;2024-03-06T01:26:54;18.83;;;9.40;;
69573;SDS011;62840;52.366;5.980;2024-03-06T01:29:20;19.15;;;9.85;;
69573;SDS011;62840;52.366;5.980;2024-03-06T01:31:45;17.23;;;9.30;;
69573;SDS011;62840;52.366;5.980;2024-03-06T01:34:11;18.90;;;9.23;;
69573;SDS011;62840;52.366;5.980;2024-03-06T01:36:37;18.40;;;9.60;;
69573;SDS011;62840;52.366;5.980;2024-03-06T01:39:03;18.63;;;8.60;;
69573;SDS011;62840;52.366;5.980;2024-03-06T01:41:32;18.17;;;9.27;;
69573;SDS011;62840;52.366;5.980;2024-03-06T01:43:57;19.13;;;9.10;;
69573;SDS011;62840;52.366;5.980;2024-03-06T01:46:23;16.67;;;8.93;;
69573;SDS011;62840;52.366;5.980;2024-03-06T01:48:49;17.88;;;10.18;;
69573;SDS011;62840;52.366;5.980;2024-03-06T01:51:16;17.02;;;8.57;;
69573;SDS011;62840;52.366;5.980;2024-03-06T01:53:42;17.60;;;9.13;;
69573;SDS011;62840;52.366;5.980;2024-03-06T01:56:08;19.50;;;10.10;;
69573;SDS011;62840;52.366;5.980;2024-03-06T01:58:39;20.53;;;9.13;;
69573;SDS011;62840;52.366;5.980;2024-03-06T02:01:06;15.77;;;8.93;;
69573;SDS011;62840;52.366;5.980;2024-03-06T02:03:32;18.13;;;9.45;;
69573;SDS011;62840;52.366;5.980;2024-03-06T02:05:59;19.48;;;9.60;;
69573;SDS011;62840;52.366;5.980;2024-03-06T02:08:28;19.58;;;9.57;;
69573;SDS011;62840;52.366;5.980;2024-03-06T02:10:54;20.57;;;9.70;;
69573;SDS011;62840;52.366;5.980;2024-03-06T02:13:20;19.55;;;9.23;;
69573;SDS011;62840;52.366;5.980;2024-03-06T02:15:49;20.27;;;9.85;;
69573;SDS011;62840;52.366;5.980;2024-03-06T02:18:15;17.40;;;8.80;;
69573;SDS011;62840;52.366;5.980;2024-03-06T02:20:43;19.43;;;10.20;;
69573;SDS011;62840;52.366;5.980;2024-03-06T02:23:09;18.15;;;9.00;;
69573;SDS011;62840;52.366;5.980;2024-03-06T02:25:35;20.50;;;9.75;;
69573;SDS011;62840;52.366;5.980;2024-03-06T02:28:01;17.80;;;9.87;;
69573;SDS011;62840;52.366;5.980;2024-03-06T02:30:27;20.63;;;10.02;;
69573;SDS011;62840;52.366;5.980;2024-03-06T02:32:53;19.05;;;9.73;;
69573;SDS011;62840;52.366;5.980;2024-03-06T02:35:18;17.58;;;9.07;;
69573;SDS011;62840;52.366;5.980;2024-03-06T02:37:47;17.27;;;9.48;;
69573;SDS011;62840;52.366;5.980;2024-03-06T02:40:13;20.85;;;10.50;;
69573;SDS011;62840;52.366;5.980;2024-03-06T02:42:39;18.33;;;9.65;;
69573;SDS011;62840;52.366;5.980;2024-03-06T02:45:05;19.27;;;9.60;;
69573;SDS011;62840;52.366;5.980;2024-03-06T02:47:32;19.67;;;10.20;;
69573;SDS011;62840;52.366;5.980;2024-03-06T02:49:58;20.10;;;9.77;;
69573;SDS011;62840;52.366;5.980;2024-03-06T02:52:26;19.73;;;10.27;;
69573;SDS011;62840;52.366;5.980;2024-03-06T02:54:54;19.65;;;9.75;;
69573;SDS011;62840;52.366;5.980;2024-03-06T02:57:21;19.35;;;10.13;;
69573;SDS011;62840;52.366;5.980;2024-03-06T02:59:47;21.40;;;10.07;;
69573;SDS011;62840;52.366;5.980;2024-03-06T03:02:13;20.48;;;10.57;;
69573;SDS011;62840;52.366;5.980;2024-03-06T03:04:38;18.30;;;9.40;;
69573;SDS011;62840;52.366;5.980;2024-03-06T03:07:04;19.13;;;10.00;;
69573;SDS011;62840;52.366;5.980;2024-03-06T03:09:30;19.30;;;9.48;;
69573;SDS011;62840;52.366;5.980;2024-03-06T03:11:59;21.85;;;10.45;;
69573;SDS011;62840;52.366;5.980;2024-03-06T03:14:25;17.77;;;9.50;;
69573;SDS011;62840;52.366;5.980;2024-03-06T03:16:50;17.60;;;8.93;;
69573;SDS011;62840;52.366;5.980;2024-03-06T03:19:16;20.42;;;9.25;;
69573;SDS011;62840;52.366;5.980;2024-03-06T03:21:43;19.27;;;10.27;;
69573;SDS011;62840;52.366;5.980;2024-03-06T03:24:10;19.80;;;10.02;;
69573;SDS011;62840;52.366;5.980;2024-03-06T03:26:36;22.08;;;10.15;;
69573;SDS011;62840;52.366;5.980;2024-03-06T03:29:04;20.10;;;10.00;;
69573;SDS011;62840;52.366;5.980;2024-03-06T03:31:30;18.75;;;9.82;;
69573;SDS011;62840;52.366;5.980;2024-03-06T03:33:56;18.08;;;9.48;;
69573;SDS011;62840;52.366;5.980;2024-03-06T03:36:22;18.45;;;10.13;;
69573;SDS011;62840;52.366;5.980;2024-03-06T03:38:47;21.20;;;10.10;;
69573;SDS011;62840;52.366;5.980;2024-03-06T03:41:13;19.85;;;10.63;;
69573;SDS011;62840;52.366;5.980;2024-03-06T03:43:40;19.23;;;10.38;;
69573;SDS011;62840;52.366;5.980;2024-03-06T03:46:10;22.70;;;11.82;;
69573;SDS011;62840;52.366;5.980;2024-03-06T03:48:36;20.90;;;10.70;;
69573;SDS011;62840;52.366;5.980;2024-03-06T03:51:02;18.95;;;10.43;;
69573;SDS011;62840;52.366;5.980;2024-03-06T03:53:28;22.23;;;11.27;;
69573;SDS011;62840;52.366;5.980;2024-03-06T03:55:54;21.03;;;11.33;;
69573;SDS011;62840;52.366;5.980;2024-03-06T03:58:20;20.15;;;11.32;;
69573;SDS011;62840;52.366;5.980;2024-03-06T04:00:46;21.02;;;11.65;;
69573;SDS011;62840;52.366;5.980;2024-03-06T04:03:15;18.87;;;11.40;;
69573;SDS011;62840;52.366;5.980;2024-03-06T04:05:40;21.63;;;10.25;;
69573;SDS011;62840;52.366;5.980;2024-03-06T04:08:06;22.08;;;11.13;;
69573;SDS011;62840;52.366;5.980;2024-03-06T04:10:32;21.13;;;11.10;;
69573;SDS011;62840;52.366;5.980;2024-03-06T04:12:58;21.02;;;10.90;;
69573;SDS011;62840;52.366;5.980;2024-03-06T04:15:24;20.63;;;11.60;;
69573;SDS011;62840;52.366;5.980;2024-03-06T04:17:50;22.53;;;10.97;;
69573;SDS011;62840;52.366;5.980;2024-03-06T04:20:18;19.80;;;11.07;;
69573;SDS011;62840;52.366;5.980;2024-03-06T04:22:44;20.85;;;10.35;;
69573;SDS011;62840;52.366;5.980;2024-03-06T04:25:10;19.98;;;10.95;;
69573;SDS011;62840;52.366;5.980;2024-03-06T04:27:36;21.27;;;11.70;;
69573;SDS011;62840;52.366;5.980;2024-03-06T04:30:02;21.00;;;10.55;;
69573;SDS011;62840;52.366;5.980;2024-03-06T04:32:30;22.08;;;11.00;;
69573;SDS011;62840;52.366;5.980;2024-03-06T04:34:55;19.27;;;10.27;;
69573;SDS011;62840;52.366;5.980;2024-03-06T04:37:24;20.33;;;10.77;;
69573;SDS011;62840;52.366;5.980;2024-03-06T04:39:50;21.65;;;11.55;;
69573;SDS011;62840;52.366;5.980;2024-03-06T04:42:16;19.50;;;10.47;;
69573;SDS011;62840;52.366;5.980;2024-03-06T04:44:41;17.02;;;10.20;;
69573;SDS011;62840;52.366;5.980;2024-03-06T04:47:07;17.60;;;10.48;;
69573;SDS011;62840;52.366;5.980;2024-03-06T04:49:33;19.85;;;10.77;;
69573;SDS011;62840;52.366;5.980;2024-03-06T04:51:59;20.58;;;11.15;;
69573;SDS011;62840;52.366;5.980;2024-03-06T04:54:28;21.65;;;11.15;;
69573;SDS011;62840;52.366;5.980;2024-03-06T04:56:54;19.58;;;10.15;;
69573;SDS011;62840;52.366;5.980;2024-03-06T04:59:20;19.98;;;10.75;;
69573;SDS011;62840;52.366;5.980;2024-03-06T05:01:46;20.65;;;11.15;;
69573;SDS011;62840;52.366;5.980;2024-03-06T05:04:12;19.35;;;10.38;;
69573;SDS011;62840;52.366;5.980;2024-03-06T05:06:38;21.65;;;10.80;;
69573;SDS011;62840;52.366;5.980;2024-03-06T05:09:04;21.95;;;10.95;;
69573;SDS011;62840;52.366;5.980;2024-03-06T05:11:32;19.27;;;10.40;;
69573;SDS011;62840;52.366;5.980;2024-03-06T05:13:58;20.73;;;10.20;;
69573;SDS011;62840;52.366;5.980;2024-03-06T05:16:25;19.90;;;10.52;;
69573;SDS011;62840;52.366;5.980;2024-03-06T05:18:50;20.10;;;10.60;;
69573;SDS011;62840;52.366;5.980;2024-03-06T05:21:16;20.60;;;10.57;;
69573;SDS011;62840;52.366;5.980;2024-03-06T05:23:42;21.20;;;10.75;;
69573;SDS011;62840;52.366;5.980;2024-03-06T05:26:08;21.70;;;11.07;;
69573;SDS011;62840;52.366;5.980;2024-03-06T05:28:37;18.67;;;10.27;;
69573;SDS011;62840;52.366;5.980;2024-03-06T05:31:13;21.15;;;10.93;;
69573;SDS011;62840;52.366;5.980;2024-03-06T05:33:43;19.67;;;10.93;;
69573;SDS011;62840;52.366;5.980;2024-03-06T05:36:09;22.40;;;11.90;;
69573;SDS011;62840;52.366;5.980;2024-03-06T05:38:35;21.93;;;11.87;;
69573;SDS011;62840;52.366;5.980;2024-03-06T05:41:01;20.38;;;11.13;;
69573;SDS011;62840;52.366;5.980;2024-03-06T05:43:27;19.90;;;10.77;;
69573;SDS011;62840;52.366;5.980;2024-03-06T05:45:55;21.77;;;10.23;;
69573;SDS011;62840;52.366;5.980;2024-03-06T05:48:21;24.48;;;10.70;;
69573;SDS011;62840;52.366;5.980;2024-03-06T05:50:47;21.77;;;11.30;;
69573;SDS011;62840;52.366;5.980;2024-03-06T05:53:14;22.13;;;10.77;;
69573;SDS011;62840;52.366;5.980;2024-03-06T05:55:40;23.65;;;11.30;;
69573;SDS011;62840;52.366;5.980;2024-03-06T05:58:06;25.20;;;11.10;;
69573;SDS011;62840;52.366;5.980;2024-03-06T06:00:32;24.57;;;12.40;;
69573;SDS011;62840;52.366;5.980;2024-03-06T06:03:01;23.40;;;11.43;;
69573;SDS011;62840;52.366;5.980;2024-03-06T06:05:26;22.23;;;11.95;;
69573;SDS011;62840;52.366;5.980;2024-03-06T06:07:52;27.53;;;10.93;;
69573;SDS011;62840;52.366;5.980;2024-03-06T06:10:18;24.67;;;12.07;;
69573;SDS011;62840;52.366;5.980;2024-03-06T06:12:44;23.42;;;11.32;;
69573;SDS011;62840;52.366;5.980;2024-03-06T06:15:10;24.48;;;10.98;;
69573;SDS011;62840;52.366;5.980;2024-03-06T06:17:36;23.85;;;12.02;;
69573;SDS011;62840;52.366;5.980;2024-03-06T06:20:05;31.20;;;11.77;;
69573;SDS011;62840;52.366;5.980;2024-03-06T06:22:32;24.03;;;12.07;;
69573;SDS011;62840;52.366;5.980;2024-03-06T06:24:58;28.65;;;11.88;;
69573;SDS011;62840;52.366;5.980;2024-03-06T06:27:24;30.10;;;12.70;;
69573;SDS011;62840;52.366;5.980;2024-03-06T06:29:50;47.03;;;12.93;;
69573;SDS011;62840;52.366;5.980;2024-03-06T06:32:16;39.28;;;12.15;;
69573;SDS011;62840;52.366;5.980;2024-03-06T06:34:42;39.15;;;12.20;;
69573;SDS011;62840;52.366;5.980;2024-03-06T06:37:10;54.88;;;11.95;;
69573;SDS011;62840;52.366;5.980;2024-03-06T06:39:36;39.10;;;11.50;;
69573;SDS011;62840;52.366;5.980;2024-03-06T06:42:02;31.02;;;11.45;;
69573;SDS011;62840;52.366;5.980;2024-03-06T06:44:28;53.25;;;11.73;;
69573;SDS011;62840;52.366;5.980;2024-03-06T06:46:54;54.45;;;10.45;;
69573;SDS011;62840;52.366;5.980;2024-03-06T06:49:20;29.63;;;10.38;;
69573;SDS011;62840;52.366;5.980;2024-03-06T06:51:45;41.57;;;9.83;;
69573;SDS011;62840;52.366;5.980;2024-03-06T06:54:14;28.52;;;9.68;;
69573;SDS011;62840;52.366;5.980;2024-03-06T06:56:40;23.88;;;9.32;;
69573;SDS011;62840;52.366;5.980;2024-03-06T06:59:06;20.00;;;9.77;;
69573;SDS011;62840;52.366;5.980;2024-03-06T07:01:32;29.27;;;10.25;;
69573;SDS011;62840;52.366;5.980;2024-03-06T07:03:57;25.08;;;10.32;;
69573;SDS011;62840;52.366;5.980;2024-03-06T07:06:23;22.13;;;9.63;;
69573;SDS011;62840;52.366;5.980;2024-03-06T07:08:49;33.50;;;10.57;;
69573;SDS011;62840;52.366;5.980;2024-03-06T07:11:19;27.90;;;10.43;;
69573;SDS011;62840;52.366;5.980;2024-03-06T07:13:44;25.33;;;11.03;;
69573;SDS011;62840;52.366;5.980;2024-03-06T07:16:10;26.77;;;10.82;;
69573;SDS011;62840;52.366;5.980;2024-03-06T07:18:36;22.42;;;10.02;;
69573;SDS011;62840;52.366;5.980;2024-03-06T07:21:02;17.40;;;9.20;;
69573;SDS011;62840;52.366;5.980;2024-03-06T07:23:28;18.50;;;10.07;;
69573;SDS011;62840;52.366;5.980;2024-03-06T07:25:54;16.63;;;9.65;;
69573;SDS011;62840;52.366;5.980;2024-03-06T07:28:22;23.77;;;10.30;;
69573;SDS011;62840;52.366;5.980;2024-03-06T07:30:48;23.38;;;9.95;;
69573;SDS011;62840;52.366;5.980;2024-03-06T07:33:14;23.10;;;10.32;;
69573;SDS011;62840;52.366;5.980;2024-03-06T07:35:40;24.50;;;9.87;;
69573;SDS011;62840;52.366;5.980;2024-03-06T07:38:06;31.58;;;11.18;;
69573;SDS011;62840;52.366;5.980;2024-03-06T07:40:32;25.88;;;10.25;;
69573;SDS011;62840;52.366;5.980;2024-03-06T07:42:57;22.30;;;9.47;;
69573;SDS011;62840;52.366;5.980;2024-03-06T07:45:28;22.38;;;9.38;;
69573;SDS011;62840;52.366;5.980;2024-03-06T07:47:54;20.83;;;9.02;;
69573;SDS011;62840;52.366;5.980;2024-03-06T07:50:20;23.43;;;9.63;;
69573;SDS011;62840;52.366;5.980;2024-03-06T07:52:46;20.38;;;9.13;;
69573;SDS011;62840;52.366;5.980;2024-03-06T07:55:12;16.85;;;8.98;;
69573;SDS011;62840;52.366;5.980;2024-03-06T07:57:38;17.70;;;9.02;;
69573;SDS011;62840;52.366;5.980;2024-03-06T08:00:04;20.20;;;9.33;;
69573;SDS011;62840;52.366;5.980;2024-03-06T08:02:35;18.65;;;9.73;;
69573;SDS011;62840;52.366;5.980;2024-03-06T08:05:05;17.95;;;9.68;;
69573;SDS011;62840;52.366;5.980;2024-03-06T08:07:31;20.27;;;9.25;;
69573;SDS011;62840;52.366;5.980;2024-03-06T08:09:57;18.70;;;9.47;;
69573;SDS011;62840;52.366;5.980;2024-03-06T08:12:23;19.45;;;9.63;;
69573;SDS011;62840;52.366;5.980;2024-03-06T08:14:48;15.67;;;9.23;;
69573;SDS011;62840;52.366;5.980;2024-03-06T08:17:14;18.08;;;9.00;;
69573;SDS011;62840;52.366;5.980;2024-03-06T08:19:43;18.17;;;9.20;;
69573;SDS011;62840;52.366;5.980;2024-03-06T08:22:09;18.23;;;9.17;;
69573;SDS011;62840;52.366;5.980;2024-03-06T08:24:34;17.83;;;8.43;;
69573;SDS011;62840;52.366;5.980;2024-03-06T08:27:00;18.55;;;8.93;;
69573;SDS011;62840;52.366;5.980;2024-03-06T08:29:26;17.20;;;8.30;;
69573;SDS011;62840;52.366;5.980;2024-03-06T08:31:52;16.70;;;8.77;;
69573;SDS011;62840;52.366;5.980;2024-03-06T08:34:18;15.63;;;8.23;;
69573;SDS011;62840;52.366;5.980;2024-03-06T08:36:46;14.73;;;8.03;;
69573;SDS011;62840;52.366;5.980;2024-03-06T08:39:12;16.77;;;8.70;;
69573;SDS011;62840;52.366;5.980;2024-03-06T08:41:38;16.25;;;8.40;;
69573;SDS011;62840;52.366;5.980;2024-03-06T08:44:04;18.00;;;9.03;;
69573;SDS011;62840;52.366;5.980;2024-03-06T08:46:30;22.05;;;8.82;;
69573;SDS011;62840;52.366;5.980;2024-03-06T08:48:56;19.00;;;8.80;;
69573;SDS011;62840;52.366;5.980;2024-03-06T08:51:22;20.13;;;8.80;;
69573;SDS011;62840;52.366;5.980;2024-03-06T08:53:50;18.83;;;9.02;;
69573;SDS011;62840;52.366;5.980;2024-03-06T08:56:16;24.20;;;10.43;;
69573;SDS011;62840;52.366;5.980;2024-03-06T08:58:42;23.07;;;10.30;;
69573;SDS011;62840;52.366;5.980;2024-03-06T09:01:08;21.90;;;10.23;;
69573;SDS011;62840;52.366;5.980;2024-03-06T09:03:33;22.80;;;10.15;;
69573;SDS011;62840;52.366;5.980;2024-03-06T09:05:59;21.70;;;9.45;;
69573;SDS011;62840;52.366;5.980;2024-03-06T09:08:25;21.88;;;10.10;;
69573;SDS011;62840;52.366;5.980;2024-03-06T09:10:54;21.67;;;10.00;;
69573;SDS011;62840;52.366;5.980;2024-03-06T09:13:19;23.08;;;10.35;;
69573;SDS011;62840;52.366;5.980;2024-03-06T09:15:45;23.95;;;9.82;;
69573;SDS011;62840;52.366;5.980;2024-03-06T09:18:11;23.53;;;10.67;;
69573;SDS011;62840;52.366;5.980;2024-03-06T09:20:37;24.77;;;10.57;;
69573;SDS011;62840;52.366;5.980;2024-03-06T09:23:03;27.17;;;11.25;;
69573;SDS011;62840;52.366;5.980;2024-03-06T09:25:29;24.90;;;11.20;;
69573;SDS011;62840;52.366;5.980;2024-03-06T09:27:58;25.65;;;10.93;;
69573;SDS011;62840;52.366;5.980;2024-03-06T09:30:23;27.23;;;12.02;;
69573;SDS011;62840;52.366;5.980;2024-03-06T09:32:49;27.40;;;11.05;;
69573;SDS011;62840;52.366;5.980;2024-03-06T09:35:15;24.48;;;10.95;;
69573;SDS011;62840;52.366;5.980;2024-03-06T09:37:44;24.55;;;11.60;;
69573;SDS011;62840;52.366;5.980;2024-03-06T09:40:11;27.10;;;12.07;;
69573;SDS011;62840;52.366;5.980;2024-03-06T09:42:45;27.00;;;11.70;;
69573;SDS011;62840;52.366;5.980;2024-03-06T09:45:14;25.77;;;11.23;;
69573;SDS011;62840;52.366;5.980;2024-03-06T09:47:40;27.42;;;12.27;;
69573;SDS011;62840;52.366;5.980;2024-03-06T09:50:08;29.52;;;12.88;;
69573;SDS011;62840;52.366;5.980;2024-03-06T09:52:36;27.42;;;12.23;;
69573;SDS011;62840;52.366;5.980;2024-03-06T09:55:06;27.90;;;12.73;;
69573;SDS011;62840;52.366;5.980;2024-03-06T09:57:33;28.50;;;11.63;;
69573;SDS011;62840;52.366;5.980;2024-03-06T09:59:58;27.88;;;11.65;;
69573;SDS011;62840;52.366;5.980;2024-03-06T10:02:31;27.33;;;11.82;;
69573;SDS011;62840;52.366;5.980;2024-03-06T10:05:03;26.53;;;11.37;;
69573;SDS011;62840;52.366;5.980;2024-03-06T10:07:30;25.83;;;11.38;;
69573;SDS011;62840;52.366;5.980;2024-03-06T10:09:56;25.52;;;11.88;;
69573;SDS011;62840;52.366;5.980;2024-03-06T10:12:22;27.50;;;12.15;;
69573;SDS011;62840;52.366;5.980;2024-03-06T10:14:49;26.95;;;11.88;;
69573;SDS011;62840;52.366;5.980;2024-03-06T10:17:18;27.75;;;12.02;;
69573;SDS011;62840;52.366;5.980;2024-03-06T10:19:48;28.63;;;12.73;;
69573;SDS011;62840;52.366;5.980;2024-03-06T10:22:14;27.70;;;11.88;;
69573;SDS011;62840;52.366;5.980;2024-03-06T10:24:40;26.70;;;11.80;;
69573;SDS011;62840;52.366;5.980;2024-03-06T10:27:06;27.13;;;11.85;;
69573;SDS011;62840;52.366;5.980;2024-03-06T10:29:32;29.05;;;12.20;;
69573;SDS011;62840;52.366;5.980;2024-03-06T10:31:58;26.98;;;12.38;;
69573;SDS011;62840;52.366;5.980;2024-03-06T10:34:24;24.70;;;11.67;;
69573;SDS011;62840;52.366;5.980;2024-03-06T10:36:55;27.20;;;11.27;;
69573;SDS011;62840;52.366;5.980;2024-03-06T10:39:23;28.75;;;11.45;;
69573;SDS011;62840;52.366;5.980;2024-03-06T10:41:51;24.65;;;11.18;;
69573;SDS011;62840;52.366;5.980;2024-03-06T10:44:20;27.23;;;11.70;;
69573;SDS011;62840;52.366;5.980;2024-03-06T10:46:47;24.25;;;11.05;;
69573;SDS011;62840;52.366;5.980;2024-03-06T10:49:23;25.90;;;11.20;;
69573;SDS011;62840;52.366;5.980;2024-03-06T10:51:50;26.52;;;11.00;;
69573;SDS011;62840;52.366;5.980;2024-03-06T10:54:20;25.10;;;11.38;;
69573;SDS011;62840;52.366;5.980;2024-03-06T10:56:49;26.83;;;12.57;;
69573;SDS011;62840;52.366;5.980;2024-03-06T10:59:16;25.33;;;11.77;;
69573;SDS011;62840;52.366;5.980;2024-03-06T11:01:46;25.30;;;11.55;;
69573;SDS011;62840;52.366;5.980;2024-03-06T11:04:12;29.27;;;12.38;;
69573;SDS011;62840;52.366;5.980;2024-03-06T11:06:38;29.33;;;11.80;;
69573;SDS011;62840;52.366;5.980;2024-03-06T11:09:04;28.47;;;11.87;;
69573;SDS011;62840;52.366;5.980;2024-03-06T11:11:46;25.20;;;11.50;;
69573;SDS011;62840;52.366;5.980;2024-03-06T11:14:13;30.95;;;12.30;;
69573;SDS011;62840;52.366;5.980;2024-03-06T11:19:25;25.85;;;12.00;;
69573;SDS011;62840;52.366;5.980;2024-03-06T11:21:52;26.47;;;11.37;;
69573;SDS011;62840;52.366;5.980;2024-03-06T11:24:18;28.15;;;12.52;;
69573;SDS011;62840;52.366;5.980;2024-03-06T11:26:49;26.48;;;11.48;;
69573;SDS011;62840;52.366;5.980;2024-03-06T11:29:20;27.50;;;12.48;;
69573;SDS011;62840;52.366;5.980;2024-03-06T11:31:57;26.20;;;11.60;;
69573;SDS011;62840;52.366;5.980;2024-03-06T11:34:27;24.05;;;10.70;;
69573;SDS011;62840;52.366;5.980;2024-03-06T11:36:53;26.92;;;10.88;;
69573;SDS011;62840;52.366;5.980;2024-03-06T11:39:22;23.75;;;11.25;;
69573;SDS011;62840;52.366;5.980;2024-03-06T11:41:50;22.77;;;10.40;;
69573;SDS011;62840;52.366;5.980;2024-03-06T11:44:16;22.85;;;10.02;;
69573;SDS011;62840;52.366;5.980;2024-03-06T11:46:44;22.83;;;10.27;;
69573;SDS011;62840;52.366;5.980;2024-03-06T11:49:16;23.25;;;10.18;;
69573;SDS011;62840;52.366;5.980;2024-03-06T11:51:44;21.85;;;9.68;;
69573;SDS011;62840;52.366;5.980;2024-03-06T11:54:12;25.03;;;10.33;;
69573;SDS011;62840;52.366;5.980;2024-03-06T11:56:38;22.83;;;10.32;;
69573;SDS011;62840;52.366;5.980;2024-03-06T11:59:07;23.15;;;10.07;;
69573;SDS011;62840;52.366;5.980;2024-03-06T12:01:33;23.15;;;10.02;;
69573;SDS011;62840;52.366;5.980;2024-03-06T12:04:00;23.63;;;10.25;;
69573;SDS011;62840;52.366;5.980;2024-03-06T12:06:26;21.60;;;9.77;;
69573;SDS011;62840;52.366;5.980;2024-03-06T12:08:52;21.08;;;9.25;;
69573;SDS011;62840;52.366;5.980;2024-03-06T12:11:19;22.10;;;9.43;;
69573;SDS011;62840;52.366;5.980;2024-03-06T12:13:45;24.40;;;10.13;;
69573;SDS011;62840;52.366;5.980;2024-03-06T12:16:13;21.35;;;9.90;;
69573;SDS011;62840;52.366;5.980;2024-03-06T12:18:40;19.70;;;9.55;;
69573;SDS011;62840;52.366;5.980;2024-03-06T12:21:06;22.45;;;10.15;;
69573;SDS011;62840;52.366;5.980;2024-03-06T12:23:32;20.95;;;9.48;;
69573;SDS011;62840;52.366;5.980;2024-03-06T12:26:05;21.27;;;9.07;;
69573;SDS011;62840;52.366;5.980;2024-03-06T12:28:32;22.77;;;9.95;;
69573;SDS011;62840;52.366;5.980;2024-03-06T12:30:58;20.52;;;9.65;;
69573;SDS011;62840;52.366;5.980;2024-03-06T12:33:31;22.80;;;9.40;;
69573;SDS011;62840;52.366;5.980;2024-03-06T12:36:01;20.07;;;9.73;;
69573;SDS011;62840;52.366;5.980;2024-03-06T12:38:29;20.70;;;9.25;;
69573;SDS011;62840;52.366;5.980;2024-03-06T12:40:55;18.45;;;8.55;;
69573;SDS011;62840;52.366;5.980;2024-03-06T12:43:21;17.42;;;8.90;;
69573;SDS011;62840;52.366;5.980;2024-03-06T12:45:47;18.67;;;8.00;;
69573;SDS011;62840;52.366;5.980;2024-03-06T12:48:12;19.23;;;8.55;;
69573;SDS011;62840;52.366;5.980;2024-03-06T12:50:41;19.80;;;8.23;;
69573;SDS011;62840;52.366;5.980;2024-03-06T12:53:07;18.67;;;7.60;;
69573;SDS011;62840;52.366;5.980;2024-03-06T12:55:33;16.97;;;7.73;;
69573;SDS011;62840;52.366;5.980;2024-03-06T12:57:59;17.75;;;8.60;;
69573;SDS011;62840;52.366;5.980;2024-03-06T13:00:25;22.27;;;9.93;;
69573;SDS011;62840;52.366;5.980;2024-03-06T13:02:50;20.23;;;8.90;;
69573;SDS011;62840;52.366;5.980;2024-03-06T13:05:16;18.10;;;7.80;;
69573;SDS011;62840;52.366;5.980;2024-03-06T13:07:45;20.65;;;8.88;;
69573;SDS011;62840;52.366;5.980;2024-03-06T13:10:11;17.73;;;8.50;;
69573;SDS011;62840;52.366;5.980;2024-03-06T13:12:37;19.30;;;7.85;;
69573;SDS011;62840;52.366;5.980;2024-03-06T13:15:04;18.98;;;9.25;;
69573;SDS011;62840;52.366;5.980;2024-03-06T13:17:31;18.17;;;8.15;;
69573;SDS011;62840;52.366;5.980;2024-03-06T13:19:57;17.73;;;8.50;;
69573;SDS011;62840;52.366;5.980;2024-03-06T13:22:22;18.35;;;8.85;;
69573;SDS011;62840;52.366;5.980;2024-03-06T13:24:51;21.30;;;9.30;;
69573;SDS011;62840;52.366;5.980;2024-03-06T13:27:17;24.58;;;10.27;;
69573;SDS011;62840;52.366;5.980;2024-03-06T13:29:43;19.37;;;9.60;;
69573;SDS011;62840;52.366;5.980;2024-03-06T13:32:09;21.98;;;10.40;;
69573;SDS011;62840;52.366;5.980;2024-03-06T13:34:35;22.23;;;10.15;;
69573;SDS011;62840;52.366;5.980;2024-03-06T13:37:01;22.92;;;9.60;;
69573;SDS011;62840;52.366;5.980;2024-03-06T13:39:27;19.55;;;9.05;;
69573;SDS011;62840;52.366;5.980;2024-03-06T13:41:55;20.70;;;9.75;;
69573;SDS011;62840;52.366;5.980;2024-03-06T13:44:21;18.85;;;9.20;;
69573;SDS011;62840;52.366;5.980;2024-03-06T13:46:47;20.60;;;9.67;;
69573;SDS011;62840;52.366;5.980;2024-03-06T13:49:33;18.48;;;8.38;;
69573;SDS011;62840;52.366;5.980;2024-03-06T13:52:01;20.02;;;9.43;;
69573;SDS011;62840;52.366;5.980;2024-03-06T13:54:27;18.73;;;8.50;;
69573;SDS011;62840;52.366;5.980;2024-03-06T13:56:55;19.38;;;8.65;;
69573;SDS011;62840;52.366;5.980;2024-03-06T13:59:21;19.08;;;8.80;;
69573;SDS011;62840;52.366;5.980;2024-03-06T14:01:47;19.70;;;9.37;;
69573;SDS011;62840;52.366;5.980;2024-03-06T14:04:13;18.75;;;9.15;;
69573;SDS011;62840;52.366;5.980;2024-03-06T14:06:39;17.77;;;8.80;;
69573;SDS011;62840;52.366;5.980;2024-03-06T14:09:05;16.60;;;7.83;;
69573;SDS011;62840;52.366;5.980;2024-03-06T14:11:30;16.38;;;8.05;;
69573;SDS011;62840;52.366;5.980;2024-03-06T14:13:59;16.20;;;7.63;;
69573;SDS011;62840;52.366;5.980;2024-03-06T14:16:25;15.93;;;7.95;;
69573;SDS011;62840;52.366;5.980;2024-03-06T14:18:50;17.17;;;8.02;;
69573;SDS011;62840;52.366;5.980;2024-03-06T14:21:16;16.83;;;7.63;;
69573;SDS011;62840;52.366;5.980;2024-03-06T14:23:42;17.85;;;8.07;;
69573;SDS011;62840;52.366;5.980;2024-03-06T14:26:08;17.75;;;8.77;;
69573;SDS011;62840;52.366;5.980;2024-03-06T14:28:34;17.23;;;8.23;;